createdAt,value
2022-09-01T00:00:01.792Z,24.07
2022-09-01T00:02:28.858Z,24.04
2022-09-01T00:04:55.343Z,24.13
2022-09-01T00:07:21.919Z,24.18
2022-09-01T00:09:48.307Z,24.30
2022-09-01T00:12:14.707Z,24.17
2022-09-01T00:14:41.728Z,24.14
2022-09-01T00:17:08.162Z,24.09
2022-09-01T00:19:34.550Z,23.80
2022-09-01T00:22:01.052Z,25.84
2022-09-01T00:24:27.467Z,24.96
2022-09-01T00:26:53.871Z,24.39
2022-09-01T00:29:20.563Z,24.13
2022-09-01T00:31:47.001Z,23.91
2022-09-01T00:34:13.388Z,23.93
2022-09-01T00:36:39.797Z,23.98
2022-09-01T00:39:06.188Z,23.97
2022-09-01T00:41:32.572Z,24.01
2022-09-01T00:43:59.033Z,24.03
2022-09-01T00:46:28.873Z,24.17
2022-09-01T00:48:55.665Z,24.23
2022-09-01T00:51:22.123Z,24.20
2022-09-01T00:53:48.509Z,24.14
2022-09-01T00:56:14.907Z,23.77
2022-09-01T00:58:41.344Z,25.72
2022-09-01T01:01:07.829Z,24.73
2022-09-01T01:03:34.278Z,24.27
2022-09-01T01:06:00.756Z,23.76
2022-09-01T01:08:27.136Z,23.74
2022-09-01T01:10:53.551Z,23.73
2022-09-01T01:13:19.982Z,23.67
2022-09-01T01:15:46.368Z,23.85
2022-09-01T01:18:12.774Z,23.89
2022-09-01T01:20:39.267Z,23.91
2022-09-01T01:23:05.904Z,24.04
2022-09-01T01:25:32.356Z,23.97
2022-09-01T01:27:58.909Z,24.07
2022-09-01T01:30:25.297Z,23.76
2022-09-01T01:32:51.676Z,25.60
2022-09-01T01:35:18.219Z,24.80
2022-09-01T01:37:44.602Z,24.20
2022-09-01T01:40:11.077Z,24.02
2022-09-01T01:42:37.649Z,23.89
2022-09-01T01:45:04.035Z,23.91
2022-09-01T01:47:30.430Z,23.92
2022-09-01T01:49:57.012Z,23.99
2022-09-01T01:52:26.189Z,24.14
2022-09-01T01:54:53.344Z,24.06
2022-09-01T01:57:19.774Z,24.14
2022-09-01T01:59:46.159Z,24.18
2022-09-01T02:02:12.625Z,24.20
2022-09-01T02:04:39.180Z,24.00
2022-09-01T02:07:05.610Z,25.86
2022-09-01T02:09:31.993Z,24.89
2022-09-01T02:11:58.507Z,24.33
2022-09-01T02:14:30.350Z,24.13
2022-09-01T02:16:56.792Z,23.97
2022-09-01T02:19:23.312Z,24.02
2022-09-01T02:21:49.717Z,24.11
2022-09-01T02:24:16.096Z,24.24
2022-09-01T02:26:42.625Z,24.23
2022-09-01T02:29:09.013Z,24.30
2022-09-01T02:31:35.413Z,24.32
2022-09-01T02:34:01.930Z,24.33
2022-09-01T02:36:28.320Z,24.21
2022-09-01T02:38:56.395Z,25.29
2022-09-01T02:41:23.342Z,25.47
2022-09-01T02:43:49.710Z,24.60
2022-09-01T02:46:16.157Z,24.31
2022-09-01T02:48:43.626Z,24.10
2022-09-01T02:51:10.064Z,24.13
2022-09-01T02:53:36.443Z,24.12
2022-09-01T02:56:02.935Z,24.18
2022-09-01T02:58:29.297Z,24.39
2022-09-01T03:00:55.740Z,24.35
2022-09-01T03:03:22.183Z,24.35
2022-09-01T03:05:48.540Z,24.36
2022-09-01T03:08:14.931Z,24.21
2022-09-01T03:10:41.373Z,24.65
2022-09-01T03:13:07.740Z,25.96
2022-09-01T03:15:34.130Z,24.82
2022-09-01T03:18:00.574Z,24.46
2022-09-01T03:20:27.014Z,24.22
2022-09-01T03:22:53.381Z,24.15
2022-09-01T03:25:19.847Z,24.16
2022-09-01T03:27:46.198Z,24.42
2022-09-01T03:30:12.580Z,24.43
2022-09-01T03:32:39.056Z,24.42
2022-09-01T03:35:05.451Z,24.48
2022-09-01T03:37:31.817Z,24.48
2022-09-01T03:39:58.228Z,24.35
2022-09-01T03:42:25.667Z,24.37
2022-09-01T03:44:52.022Z,26.27
2022-09-01T03:47:18.478Z,25.35
2022-09-01T03:49:44.838Z,24.69
2022-09-01T03:52:11.213Z,24.48
2022-09-01T03:54:40.042Z,24.30
2022-09-01T03:57:06.402Z,24.27
2022-09-01T03:59:32.797Z,24.28
2022-09-01T04:01:59.255Z,24.50
2022-09-01T04:04:25.705Z,24.47
2022-09-01T04:06:52.101Z,24.62
2022-09-01T04:09:18.556Z,24.41
2022-09-01T04:11:46.046Z,24.64
2022-09-01T04:14:12.564Z,24.41
2022-09-01T04:16:39.077Z,26.37
2022-09-01T04:19:05.515Z,25.33
2022-09-01T04:21:31.883Z,24.82
2022-09-01T04:23:58.353Z,24.50
2022-09-01T04:26:24.736Z,24.28
2022-09-01T04:28:51.139Z,24.51
2022-09-01T04:31:17.700Z,24.33
2022-09-01T04:33:44.136Z,24.56
2022-09-01T04:36:10.522Z,24.42
2022-09-01T04:38:36.972Z,24.59
2022-09-01T04:41:03.354Z,24.45
2022-09-01T04:43:29.737Z,24.60
2022-09-01T04:45:56.267Z,24.18
2022-09-01T04:48:22.807Z,26.30
2022-09-01T04:50:49.328Z,25.21
2022-09-01T04:53:15.734Z,24.64
2022-09-01T04:55:42.108Z,24.64
2022-09-01T04:58:10.246Z,24.33
2022-09-01T05:00:37.018Z,24.65
2022-09-01T05:03:03.494Z,24.62
2022-09-01T05:05:29.915Z,24.66
2022-09-01T05:07:56.437Z,24.71
2022-09-01T05:10:24.645Z,24.82
2022-09-01T05:12:51.050Z,24.78
2022-09-01T05:15:17.487Z,25.06
2022-09-01T05:17:43.925Z,25.62
2022-09-01T05:20:10.321Z,26.52
2022-09-01T05:22:36.768Z,25.48
2022-09-01T05:25:03.134Z,25.17
2022-09-01T05:27:29.527Z,25.08
2022-09-01T05:29:55.960Z,24.72
2022-09-01T05:32:22.335Z,24.90
2022-09-01T05:34:48.689Z,25.15
2022-09-01T05:37:15.229Z,24.92
2022-09-01T05:39:41.607Z,25.26
2022-09-01T05:42:08.001Z,25.28
2022-09-01T05:44:34.444Z,25.04
2022-09-01T05:47:00.878Z,24.96
2022-09-01T05:49:27.271Z,27.13
2022-09-01T05:51:53.685Z,25.96
2022-09-01T05:54:20.066Z,25.28
2022-09-01T05:56:46.837Z,25.13
2022-09-01T05:59:28.560Z,24.95
2022-09-01T06:01:55.227Z,25.56
2022-09-01T06:04:21.896Z,25.58
2022-09-01T06:07:05.864Z,26.08
2022-09-01T06:09:34.047Z,25.79
2022-09-01T06:12:00.429Z,26.22
2022-09-01T06:14:26.826Z,26.16
2022-09-01T06:16:53.245Z,27.32
2022-09-01T06:19:19.875Z,27.19
2022-09-01T06:21:46.261Z,26.60
2022-09-01T06:24:12.685Z,26.34
2022-09-01T06:26:39.074Z,26.01
2022-09-01T06:29:05.454Z,26.45
2022-09-01T06:31:32.102Z,26.32
2022-09-01T06:33:58.484Z,26.33
2022-09-01T06:36:24.850Z,26.24
2022-09-01T06:38:51.458Z,26.65
2022-09-01T06:41:17.815Z,26.41
2022-09-01T06:43:44.182Z,27.43
2022-09-01T06:46:10.709Z,28.14
2022-09-01T06:48:37.198Z,27.01
2022-09-01T06:51:22.158Z,26.76
2022-09-01T06:53:48.914Z,26.38
2022-09-01T06:56:15.685Z,26.84
2022-09-01T06:58:42.050Z,26.68
2022-09-01T07:01:10.527Z,26.64
2022-09-01T07:03:38.312Z,26.67
2022-09-01T07:06:04.764Z,27.04
2022-09-01T07:08:31.241Z,26.94
2022-09-01T07:14:15.293Z,27.82
2022-09-01T07:16:33.366Z,27.32
2022-09-01T07:19:01.999Z,26.87
2022-09-01T07:22:06.705Z,26.88
2022-09-01T07:24:14.821Z,27.25
2022-09-01T07:26:48.296Z,27.06
2022-09-01T07:29:14.820Z,27.38
2022-09-01T07:31:49.498Z,27.06
2022-09-01T07:38:48.080Z,28.88
2022-09-01T07:45:29.299Z,27.11
2022-09-01T07:47:55.838Z,27.33
2022-09-01T07:50:39.672Z,27.42
2022-09-01T07:53:07.038Z,27.35
2022-09-01T07:55:33.652Z,27.72
2022-09-01T07:58:00.079Z,27.61
2022-09-01T08:00:28.420Z,27.83
2022-09-01T08:02:58.459Z,27.65
2022-09-01T08:05:27.330Z,29.66
2022-09-01T08:07:53.877Z,27.95
2022-09-01T08:10:20.509Z,27.48
2022-09-01T08:12:46.997Z,27.69
2022-09-01T08:18:09.116Z,27.18
2022-09-01T08:20:35.684Z,27.29
2022-09-01T08:23:02.212Z,27.54
2022-09-01T08:25:28.588Z,27.35
2022-09-01T08:28:02.693Z,27.82
2022-09-01T08:30:29.178Z,28.94
2022-09-01T08:32:55.657Z,29.11
2022-09-01T08:35:22.161Z,27.68
2022-09-01T08:37:48.878Z,27.72
2022-09-01T08:40:15.416Z,27.35
2022-09-01T08:42:41.883Z,27.46
2022-09-01T08:45:08.303Z,27.31
2022-09-01T08:47:44.584Z,27.32
2022-09-01T08:50:21.177Z,27.66
2022-09-01T08:52:47.606Z,27.66
2022-09-01T08:55:14.039Z,27.41
2022-09-01T08:57:40.463Z,29.32
2022-09-01T09:00:07.155Z,28.25
2022-09-01T09:02:33.708Z,27.74
2022-09-01T09:05:00.208Z,27.67
2022-09-01T09:07:26.715Z,27.41
2022-09-01T09:09:54.213Z,27.75
2022-09-01T09:12:20.891Z,27.71
2022-09-01T09:14:47.574Z,27.70
2022-09-01T09:17:15.124Z,28.00
2022-09-01T09:19:41.547Z,28.08
2022-09-01T09:22:08.407Z,27.88
2022-09-01T09:24:39.282Z,29.50
2022-09-01T09:27:07.091Z,28.41
2022-09-01T09:29:36.539Z,27.70
2022-09-01T09:32:03.020Z,27.95
2022-09-01T09:34:29.477Z,27.64
2022-09-01T09:36:57.325Z,27.93
2022-09-01T09:39:23.892Z,28.02
2022-09-01T09:41:50.675Z,27.98
2022-09-01T09:44:17.558Z,28.26
2022-09-01T09:46:46.197Z,28.33
2022-09-01T09:49:12.740Z,28.81
2022-09-01T09:51:39.276Z,29.57
2022-09-01T09:54:05.648Z,28.57
2022-09-01T09:56:32.079Z,27.82
2022-09-01T09:58:59.736Z,27.81
2022-09-01T10:01:26.225Z,27.72
2022-09-01T10:03:52.783Z,27.80
2022-09-01T10:06:19.295Z,28.00
2022-09-01T10:08:46.231Z,27.96
2022-09-01T10:11:12.891Z,28.37
2022-09-01T10:13:39.349Z,28.21
2022-09-01T10:16:09.361Z,30.20
2022-09-01T10:18:36.950Z,29.53
2022-09-01T10:21:06.178Z,28.35
2022-09-01T10:23:33.152Z,28.07
2022-09-01T10:25:59.611Z,28.28
2022-09-01T10:28:26.919Z,28.22
2022-09-01T10:30:53.649Z,27.89
2022-09-01T10:33:21.905Z,28.21
2022-09-01T10:35:48.808Z,28.28
2022-09-01T10:38:15.365Z,28.12
2022-09-01T10:40:43.280Z,27.62
2022-09-01T10:43:12.444Z,29.85
2022-09-01T10:45:39.070Z,28.49
2022-09-01T10:48:05.561Z,28.03
2022-09-01T10:50:35.509Z,27.57
2022-09-01T10:53:02.211Z,27.51
2022-09-01T10:55:28.686Z,27.16
2022-09-01T10:57:55.850Z,27.34
2022-09-01T11:00:37.892Z,27.77
2022-09-01T11:03:29.837Z,27.94
2022-09-01T11:05:52.870Z,27.82
2022-09-01T11:08:20.937Z,29.40
2022-09-01T11:10:47.394Z,29.08
2022-09-01T11:13:15.839Z,28.22
2022-09-01T11:15:42.285Z,27.94
2022-09-01T11:18:08.698Z,27.60
2022-09-01T11:20:36.680Z,27.85
2022-09-01T11:23:03.544Z,28.10
2022-09-01T11:25:38.768Z,27.99
2022-09-01T11:28:05.455Z,28.13
2022-09-01T11:30:31.841Z,27.70
2022-09-01T11:32:58.257Z,27.82
2022-09-01T11:35:25.418Z,29.93
2022-09-01T11:37:51.879Z,28.67
2022-09-01T11:40:18.816Z,27.75
2022-09-01T11:42:46.678Z,27.96
2022-09-01T11:45:15.476Z,27.83
2022-09-01T11:47:48.453Z,27.52
2022-09-01T11:50:14.936Z,27.76
2022-09-01T11:52:41.423Z,27.79
2022-09-01T11:55:08.025Z,28.04
2022-09-01T11:57:34.504Z,27.81
2022-09-01T12:00:00.893Z,28.07
2022-09-01T12:02:27.652Z,29.61
2022-09-01T12:04:54.366Z,28.91
2022-09-01T12:07:20.775Z,28.37
2022-09-01T12:09:47.481Z,28.15
2022-09-01T12:12:14.192Z,28.04
2022-09-01T12:15:04.309Z,27.84
2022-09-01T12:17:27.151Z,28.09
2022-09-01T12:19:53.606Z,27.64
2022-09-01T12:22:20.026Z,28.08
2022-09-01T12:24:46.513Z,27.96
2022-09-01T12:27:13.017Z,27.76
2022-09-01T12:29:40.761Z,29.86
2022-09-01T12:32:07.329Z,28.53
2022-09-01T12:34:33.864Z,28.32
2022-09-01T12:37:00.317Z,28.06
2022-09-01T12:39:26.772Z,27.76
2022-09-01T12:41:53.210Z,28.02
2022-09-01T12:44:19.591Z,28.17
2022-09-01T12:46:46.642Z,27.88
2022-09-01T12:51:44.679Z,28.05
2022-09-01T12:54:11.192Z,27.97
2022-09-01T12:56:37.610Z,30.03
2022-09-01T12:59:09.597Z,28.76
2022-09-01T13:01:40.850Z,28.27
2022-09-01T13:04:07.486Z,27.82
2022-09-01T13:06:33.885Z,27.99
2022-09-01T13:09:00.375Z,28.22
2022-09-01T13:12:04.576Z,28.35
2022-09-01T13:14:13.170Z,28.19
2022-09-01T13:16:39.781Z,28.11
2022-09-01T13:19:11.571Z,28.39
2022-09-01T13:24:04.786Z,30.16
2022-09-01T13:26:32.548Z,29.03
2022-09-01T13:28:59.136Z,28.11
2022-09-01T13:31:29.495Z,27.76
2022-09-01T13:34:21.920Z,27.79
2022-09-01T13:36:44.836Z,28.07
2022-09-01T13:39:13.434Z,28.04
2022-09-01T13:41:39.845Z,27.99
2022-09-01T13:44:06.380Z,27.90
2022-09-01T13:46:32.820Z,28.18
2022-09-01T13:49:02.973Z,28.00
2022-09-01T13:51:29.867Z,29.92
2022-09-01T13:53:56.285Z,28.91
2022-09-01T13:56:22.715Z,28.14
2022-09-01T13:58:51.149Z,27.96
2022-09-01T14:01:17.605Z,27.87
2022-09-01T14:03:44.038Z,28.25
2022-09-01T14:06:10.455Z,28.28
2022-09-01T14:08:36.938Z,27.94
2022-09-01T14:11:03.470Z,28.32
2022-09-01T14:13:30.205Z,28.37
2022-09-01T14:15:56.705Z,27.88
2022-09-01T14:18:23.151Z,29.81
2022-09-01T14:20:49.728Z,28.92
2022-09-01T14:23:16.169Z,28.06
2022-09-01T14:25:42.602Z,28.09
2022-09-01T14:28:09.113Z,28.06
2022-09-01T14:30:35.796Z,27.92
2022-09-01T14:33:02.191Z,27.86
2022-09-01T14:35:28.702Z,27.97
2022-09-01T14:37:55.174Z,28.20
2022-09-01T14:40:21.588Z,28.21
2022-09-01T14:42:48.053Z,28.33
2022-09-01T14:45:14.479Z,28.89
2022-09-01T14:47:41.056Z,29.43
2022-09-01T14:52:38.812Z,28.27
2022-09-01T14:55:05.199Z,27.89
2022-09-01T14:57:37.761Z,28.05
2022-09-01T15:00:04.981Z,27.91
2022-09-01T15:02:32.933Z,28.27
2022-09-01T15:04:59.357Z,27.92
2022-09-01T15:07:25.870Z,28.20
2022-09-01T15:09:52.385Z,27.93
2022-09-01T15:12:18.778Z,27.90
2022-09-01T15:14:45.170Z,29.41
2022-09-01T15:17:11.617Z,28.49
2022-09-01T15:19:38.042Z,28.21
2022-09-01T15:22:04.485Z,28.02
2022-09-01T15:24:32.330Z,27.58
2022-09-01T15:26:58.748Z,27.77
2022-09-01T15:29:25.210Z,27.50
2022-09-01T15:31:51.815Z,27.74
2022-09-01T15:34:18.227Z,27.80
2022-09-01T15:36:44.615Z,27.78
2022-09-01T15:39:11.215Z,27.54
2022-09-01T15:41:37.644Z,29.50
2022-09-01T15:44:04.024Z,27.89
2022-09-01T15:46:30.552Z,27.68
2022-09-01T15:48:57.055Z,27.60
2022-09-01T15:51:23.447Z,27.64
2022-09-01T15:53:49.894Z,27.31
2022-09-01T15:56:16.352Z,27.91
2022-09-01T15:59:00.366Z,27.95
2022-09-01T16:01:28.071Z,27.60
2022-09-01T16:03:54.524Z,27.51
2022-09-01T16:06:20.925Z,27.41
2022-09-01T16:08:47.897Z,29.30
2022-09-01T16:11:14.292Z,28.48
2022-09-01T16:13:40.744Z,27.05
2022-09-01T16:16:07.353Z,26.68
2022-09-01T16:18:33.785Z,26.76
2022-09-01T16:21:00.179Z,25.84
2022-09-01T16:23:26.785Z,25.76
2022-09-01T16:25:53.229Z,25.84
2022-09-01T16:28:19.626Z,26.17
2022-09-01T16:30:46.114Z,25.64
2022-09-01T16:33:12.517Z,25.52
2022-09-01T16:35:38.891Z,26.09
2022-09-01T16:38:05.385Z,26.96
2022-09-01T16:40:31.839Z,25.78
2022-09-01T16:42:58.297Z,25.50
2022-09-01T16:45:24.823Z,24.96
2022-09-01T16:47:52.974Z,25.56
2022-09-01T16:50:19.470Z,25.64
2022-09-01T16:52:45.949Z,25.51
2022-09-01T16:55:12.366Z,25.34
2022-09-01T16:57:38.837Z,25.34
2022-09-01T17:00:05.776Z,25.37
2022-09-01T17:02:32.260Z,25.25
2022-09-01T17:04:58.722Z,26.67
2022-09-01T17:07:29.768Z,26.82
2022-09-01T17:09:56.274Z,25.97
2022-09-01T17:12:22.736Z,25.37
2022-09-01T17:14:51.575Z,25.33
2022-09-01T17:17:17.962Z,25.30
2022-09-01T17:19:44.386Z,25.22
2022-09-01T17:22:10.912Z,25.52
2022-09-01T17:24:37.306Z,25.39
2022-09-01T17:27:03.910Z,25.44
2022-09-01T17:29:30.358Z,25.53
2022-09-01T17:31:56.761Z,25.07
2022-09-01T17:34:23.210Z,27.07
2022-09-01T17:36:49.658Z,25.95
2022-09-01T17:39:16.059Z,25.49
2022-09-01T17:41:42.462Z,25.29
2022-09-01T17:44:08.943Z,25.06
2022-09-01T17:46:35.429Z,25.24
2022-09-01T17:49:01.901Z,25.06
2022-09-01T17:51:28.345Z,25.13
2022-09-01T17:53:54.718Z,25.35
2022-09-01T17:56:21.244Z,25.44
2022-09-01T17:58:47.671Z,25.36
2022-09-01T18:01:14.167Z,25.22
2022-09-01T18:03:40.604Z,27.24
2022-09-01T18:06:07.094Z,26.03
2022-09-01T18:08:33.577Z,25.30
2022-09-01T18:11:00.141Z,25.40
2022-09-01T18:13:49.092Z,25.31
2022-09-01T18:16:13.104Z,25.14
2022-09-01T18:18:39.619Z,25.15
2022-09-01T18:21:06.036Z,25.45
2022-09-01T18:23:32.504Z,25.39
2022-09-01T18:25:59.053Z,25.14
2022-09-01T18:28:25.518Z,25.49
2022-09-01T18:30:52.856Z,25.31
2022-09-01T18:33:19.555Z,26.53
2022-09-01T18:35:45.951Z,26.33
2022-09-01T18:38:12.354Z,25.57
2022-09-01T18:40:38.890Z,25.11
2022-09-01T18:43:05.347Z,25.14
2022-09-01T18:45:31.749Z,25.20
2022-09-01T18:47:58.318Z,25.08
2022-09-01T18:50:26.597Z,25.10
2022-09-01T18:52:53.122Z,25.14
2022-09-01T18:55:19.600Z,25.26
2022-09-01T18:57:46.030Z,25.24
2022-09-01T19:00:18.213Z,25.27
2022-09-01T19:02:45.991Z,24.72
2022-09-01T19:05:12.458Z,26.78
2022-09-01T19:07:38.922Z,25.92
2022-09-01T19:10:05.343Z,25.47
2022-09-01T19:12:31.762Z,25.15
2022-09-01T19:14:58.151Z,24.89
2022-09-01T19:17:24.570Z,24.83
2022-09-01T19:19:50.988Z,25.04
2022-09-01T19:22:17.370Z,25.05
2022-09-01T19:24:43.767Z,25.16
2022-09-01T19:27:10.162Z,24.92
2022-09-01T19:29:36.547Z,24.95
2022-09-01T19:32:02.972Z,25.00
2022-09-01T19:34:31.717Z,24.95
2022-09-01T19:36:58.114Z,26.61
2022-09-01T19:39:24.515Z,25.38
2022-09-01T19:41:50.888Z,25.18
2022-09-01T19:44:17.279Z,25.04
2022-09-01T19:46:43.746Z,24.73
2022-09-01T19:49:10.238Z,24.77
2022-09-01T19:51:36.671Z,24.95
2022-09-01T19:54:03.148Z,24.91
2022-09-01T19:56:29.635Z,24.88
2022-09-01T19:58:56.027Z,24.97
2022-09-01T20:01:22.567Z,24.94
2022-09-01T20:03:49.058Z,25.10
2022-09-01T20:06:15.472Z,24.60
2022-09-01T20:08:41.901Z,26.56
2022-09-01T20:11:08.296Z,25.70
2022-09-01T20:13:34.702Z,24.92
2022-09-01T20:16:01.161Z,25.00
2022-09-01T20:18:27.598Z,24.69
2022-09-01T20:20:53.974Z,24.76
2022-09-01T20:23:20.364Z,24.75
2022-09-01T20:25:46.754Z,24.92
2022-09-01T20:28:13.213Z,24.79
2022-09-01T20:30:39.670Z,24.86
2022-09-01T20:33:06.068Z,24.90
2022-09-01T20:35:35.190Z,25.00
2022-09-01T20:38:03.970Z,24.51
2022-09-01T20:40:30.497Z,26.37
2022-09-01T20:42:56.916Z,25.48
2022-09-01T20:45:23.438Z,24.79
2022-09-01T20:47:49.893Z,24.67
2022-09-01T20:50:16.316Z,24.50
2022-09-01T20:52:42.731Z,24.63
2022-09-01T20:55:09.153Z,24.52
2022-09-01T20:57:35.607Z,24.61
2022-09-01T21:00:02.116Z,24.53
2022-09-01T21:02:28.530Z,24.55
2022-09-01T21:04:55.013Z,24.47
2022-09-01T21:07:21.423Z,24.54
2022-09-01T21:09:47.858Z,24.54
2022-09-01T21:12:14.249Z,25.72
2022-09-01T21:14:40.669Z,25.64
2022-09-01T21:17:07.779Z,24.76
2022-09-01T21:19:34.220Z,24.55
2022-09-01T21:22:00.664Z,24.45
2022-09-01T21:24:27.054Z,24.27
2022-09-01T21:26:53.458Z,24.43
2022-09-01T21:29:19.896Z,24.54
2022-09-01T21:31:46.307Z,24.48
2022-09-01T21:34:16.309Z,24.46
2022-09-01T21:36:43.413Z,24.53
2022-09-01T21:39:09.792Z,24.46
2022-09-01T21:41:36.175Z,24.40
2022-09-01T21:44:02.680Z,24.11
2022-09-01T21:46:29.168Z,26.11
2022-09-01T21:48:55.642Z,25.05
2022-09-01T21:51:22.039Z,24.50
2022-09-01T21:53:48.411Z,24.26
2022-09-01T21:56:14.805Z,24.33
2022-09-01T21:58:41.215Z,24.29
2022-09-01T22:01:07.641Z,24.22
2022-09-01T22:03:36.947Z,24.26
2022-09-01T22:06:03.501Z,24.29
2022-09-01T22:08:29.905Z,24.24
2022-09-01T22:10:56.313Z,24.25
2022-09-01T22:13:22.856Z,24.21
2022-09-01T22:15:49.390Z,24.23
2022-09-01T22:18:15.817Z,25.53
2022-09-01T22:20:42.349Z,25.31
2022-09-01T22:23:08.751Z,24.44
2022-09-01T22:25:35.284Z,24.15
2022-09-01T22:28:01.742Z,24.09
2022-09-01T22:30:28.217Z,23.97
2022-09-01T22:32:54.665Z,23.94
2022-09-01T22:35:21.124Z,24.01
2022-09-01T22:37:47.553Z,24.20
2022-09-01T22:40:14.012Z,24.07
2022-09-01T22:42:40.479Z,24.24
2022-09-01T22:45:06.892Z,24.06
2022-09-01T22:47:37.095Z,24.20
2022-09-01T22:50:04.974Z,23.74
2022-09-01T22:52:31.373Z,25.73
2022-09-01T22:54:57.776Z,24.73
2022-09-01T22:57:24.186Z,24.16
2022-09-01T22:59:50.574Z,23.96
2022-09-01T23:02:17.081Z,23.97
2022-09-01T23:04:43.563Z,23.82
2022-09-01T23:07:09.955Z,23.87
2022-09-01T23:09:36.371Z,24.03
2022-09-01T23:12:02.773Z,24.04
2022-09-01T23:14:29.206Z,24.02
2022-09-01T23:16:55.623Z,24.07
2022-09-01T23:19:22.103Z,23.95
2022-09-01T23:21:48.482Z,23.93
2022-09-01T23:24:14.863Z,24.75
2022-09-01T23:26:42.920Z,25.27
2022-09-01T23:29:09.317Z,24.28
2022-09-01T23:31:35.754Z,24.08
2022-09-01T23:34:04.103Z,23.69
2022-09-01T23:36:30.491Z,23.68
2022-09-01T23:38:56.944Z,23.78
2022-09-01T23:41:25.218Z,23.86
2022-09-01T23:43:55.789Z,23.86
2022-09-01T23:46:22.185Z,24.00
2022-09-01T23:48:48.578Z,23.87
2022-09-01T23:51:14.961Z,23.88
2022-09-01T23:53:41.353Z,23.90
2022-09-01T23:56:07.752Z,23.55
2022-09-01T23:58:34.148Z,25.58
